Details From EICK - Cork
To LJLJ - Ljubljana
Flight Number -
Tags Generated
Created
Modified
Stats Distance 959 nm / 1,777 km
Max Altitude 0 ft / 0 m
Waypoints 6
Social Downloads 0
Likes 0
Share VATSIM

Download

Looking for another format? Having issues loading an existing format? Contact us
Advertisement - Login to hide

Notes

Generated

Route

EICK SAM25 VAKER MEG ISTRI LJLJ

ID Type Via Altitude Latitude Longitude Leg Dist Tot Dist Heading (true) Name
O EICK APT - 0 ft / 0 m 51.84143˚ -8.49570˚ - 0 nm - -
SAM25 FIX - 0 ft / 0 m 50.84528˚ -1.98056˚ 251 nm 251 nm 101° / 106° -
VAKER FIX - 0 ft / 0 m 49.58250˚ 4.00056˚ 241 nm 493 nm 106° / 111° -
MEG NDB - 0 ft / 0 m 48.05435˚ 9.36755˚ 231 nm 724 nm 111° / 115° MENGEN NDB
ISTRI FIX - 0 ft / 0 m 46.49805˚ 13.95939˚ 209 nm 933 nm 115° / 118° -
O LJLJ APT - 0 ft / 0 m 46.23249˚ 14.44039˚ 25 nm 959 nm 128° / 129° -

Altitude Profile

Advertisement - Login to hide

Weather


0- 5 10 15 20 25 30 35+ Temperature / ° C

Clouds and Precipitation
Forecast for 2017-12-12 18:00 UTC. Updated an hour ago

Ground ~20,000 ft ~40,000 ft Winds

EICK

Details ICAO EICK (ORK)
Name Cork
Region Ireland
Timezone Europe/Dublin (UTC+0.0)
Stats Elevation 502 ft / 153 m (AMSL)
Location 51.842605° -8.489056°
Runways 2
Magnetic Variation 3.613° W

METAR

EICK 121800Z 31016KT 9999 SCT015 BKN022 08/06 Q1003 NOSIG

Decode

TAF

Not found

Departure Runways

ID Width Length Bearing (true) Bearing (mag) Surface Threshold Offset Overrun Length
07 148 ft / 45 m 4,281 ft / 1,305 m 62.55° 66.16° Concrete 0 ft / 0 m 0 ft / 0 m
17 148 ft / 45 m 6,992 ft / 2,131 m 159.93° 163.54° Asphalt 0 ft / 0 m 115 ft / 35 m
25 148 ft / 45 m 4,281 ft / 1,305 m 242.57° 246.18° Concrete 0 ft / 0 m 39 ft / 12 m
35 148 ft / 45 m 6,992 ft / 2,131 m 339.94° 343.55° Asphalt 0 ft / 0 m 0 ft / 0 m

LJLJ

Details ICAO LJLJ (LJU)
Name LJUBLJANA
Region Slovenia
Timezone Europe/Ljubljana (UTC+1.0)
Stats Elevation 1,273 ft / 388 m (AMSL)
Location 46.223685° 14.457608°
Runways 1
Magnetic Variation 3.661° E

METAR

LJLJ 121800Z 26003KT 230V330 9999 SCT040 BKN100 BKN120 06/06 Q1012 NOSIG

Decode

TAF

TAF LJLJ 121400Z 1215/1315 10005KT 9999 SCT035 BKN060 TEMPO 1215/1303 -RA BKN035 OVC060 BECMG 1303/1305 3500 RASN BR BKN010 OVC020 BECMG 1305/1307 SN TEMPO 1304/1310 10012KT 0800 VV005 BECMG 1312/1315 7000 NSW

Decode

Destination Runways

ID Width Length Bearing (true) Bearing (mag) Surface Threshold Offset Overrun Length
13 148 ft / 45 m 10,811 ft / 3,295 m 126.47° 122.81° Asphalt 0 ft / 0 m 0 ft / 0 m
31 148 ft / 45 m 10,811 ft / 3,295 m 306.49° 302.83° Asphalt 0 ft / 0 m 0 ft / 0 m

Approach Navaids

Runway Type Ident Frequency Range Bearing (true) Bearing (mag) Slope Elevation
31 Localiser LJB 110.50 MHz 18 nm / 33 km 306.46° 302.80° - 1,282 ft / 391 m (AMSL)
31 Glidescope LJB 110.50 MHz 10 nm / 19 km 306.48° 302.82° 3.00° 1,198 ft / 365 m (AMSL)
31 DME LJB 110.50 MHz 18 nm / 33 km - - - 1,198 ft / 365 m (AMSL)

Popular Alternatives